sensor_id;sensor_type;location;lat;lon;timestamp;P1;durP1;ratioP1;P2;durP2;ratioP2
6878;SDS011;3478;51.462;7.338;2023-05-07T00:01:16;7.93;;;7.33;;
6878;SDS011;3478;51.462;7.338;2023-05-07T00:06:18;10.33;;;7.80;;
6878;SDS011;3478;51.462;7.338;2023-05-07T00:11:21;7.60;;;6.90;;
6878;SDS011;3478;51.462;7.338;2023-05-07T00:16:23;9.13;;;7.73;;
6878;SDS011;3478;51.462;7.338;2023-05-07T00:21:24;7.83;;;7.23;;
6878;SDS011;3478;51.462;7.338;2023-05-07T00:26:28;7.33;;;6.73;;
6878;SDS011;3478;51.462;7.338;2023-05-07T00:31:30;7.20;;;6.80;;
6878;SDS011;3478;51.462;7.338;2023-05-07T00:36:32;7.77;;;7.07;;
6878;SDS011;3478;51.462;7.338;2023-05-07T00:41:35;7.13;;;6.50;;
6878;SDS011;3478;51.462;7.338;2023-05-07T00:46:37;6.77;;;6.27;;
6878;SDS011;3478;51.462;7.338;2023-05-07T00:51:39;9.60;;;8.80;;
6878;SDS011;3478;51.462;7.338;2023-05-07T00:56:42;7.80;;;7.10;;
6878;SDS011;3478;51.462;7.338;2023-05-07T01:01:44;9.27;;;8.37;;
6878;SDS011;3478;51.462;7.338;2023-05-07T01:06:46;8.30;;;7.50;;
6878;SDS011;3478;51.462;7.338;2023-05-07T01:11:50;9.13;;;8.30;;
6878;SDS011;3478;51.462;7.338;2023-05-07T01:16:52;8.77;;;7.90;;
6878;SDS011;3478;51.462;7.338;2023-05-07T01:21:55;12.20;;;9.13;;
6878;SDS011;3478;51.462;7.338;2023-05-07T01:27:05;9.07;;;7.50;;
6878;SDS011;3478;51.462;7.338;2023-05-07T01:32:07;9.27;;;8.37;;
6878;SDS011;3478;51.462;7.338;2023-05-07T01:37:10;8.53;;;7.90;;
6878;SDS011;3478;51.462;7.338;2023-05-07T01:42:13;8.57;;;7.87;;
6878;SDS011;3478;51.462;7.338;2023-05-07T01:47:15;8.97;;;8.17;;
6878;SDS011;3478;51.462;7.338;2023-05-07T01:52:18;8.33;;;7.70;;
6878;SDS011;3478;51.462;7.338;2023-05-07T01:57:21;9.37;;;8.47;;
6878;SDS011;3478;51.462;7.338;2023-05-07T02:02:23;9.43;;;8.07;;
6878;SDS011;3478;51.462;7.338;2023-05-07T02:07:25;9.20;;;8.40;;
6878;SDS011;3478;51.462;7.338;2023-05-07T02:12:28;9.10;;;8.33;;
6878;SDS011;3478;51.462;7.338;2023-05-07T02:17:30;8.23;;;7.63;;
6878;SDS011;3478;51.462;7.338;2023-05-07T02:22:33;9.60;;;8.60;;
6878;SDS011;3478;51.462;7.338;2023-05-07T02:27:36;8.83;;;8.13;;
6878;SDS011;3478;51.462;7.338;2023-05-07T02:32:37;8.90;;;8.13;;
6878;SDS011;3478;51.462;7.338;2023-05-07T02:37:39;8.87;;;7.70;;
6878;SDS011;3478;51.462;7.338;2023-05-07T02:42:43;9.73;;;9.00;;
6878;SDS011;3478;51.462;7.338;2023-05-07T02:47:44;9.30;;;8.43;;
6878;SDS011;3478;51.462;7.338;2023-05-07T02:52:46;9.60;;;8.90;;
6878;SDS011;3478;51.462;7.338;2023-05-07T02:57:50;10.10;;;9.20;;
6878;SDS011;3478;51.462;7.338;2023-05-07T03:02:52;10.10;;;8.33;;
6878;SDS011;3478;51.462;7.338;2023-05-07T03:07:53;9.03;;;8.00;;
6878;SDS011;3478;51.462;7.338;2023-05-07T03:12:57;10.47;;;9.47;;
6878;SDS011;3478;51.462;7.338;2023-05-07T03:17:58;9.20;;;8.27;;
6878;SDS011;3478;51.462;7.338;2023-05-07T03:23:00;8.13;;;7.53;;
6878;SDS011;3478;51.462;7.338;2023-05-07T03:28:03;8.83;;;8.10;;
6878;SDS011;3478;51.462;7.338;2023-05-07T03:33:05;11.63;;;10.63;;
6878;SDS011;3478;51.462;7.338;2023-05-07T03:38:07;17.20;;;14.07;;
6878;SDS011;3478;51.462;7.338;2023-05-07T03:43:10;30.37;;;17.37;;
6878;SDS011;3478;51.462;7.338;2023-05-07T03:48:12;17.30;;;15.40;;
6878;SDS011;3478;51.462;7.338;2023-05-07T03:53:14;17.07;;;15.20;;
6878;SDS011;3478;51.462;7.338;2023-05-07T03:58:17;18.07;;;15.10;;
6878;SDS011;3478;51.462;7.338;2023-05-07T04:03:19;16.97;;;15.30;;
6878;SDS011;3478;51.462;7.338;2023-05-07T04:08:21;16.70;;;14.97;;
6878;SDS011;3478;51.462;7.338;2023-05-07T04:13:24;16.37;;;14.77;;
6878;SDS011;3478;51.462;7.338;2023-05-07T04:18:26;19.90;;;14.63;;
6878;SDS011;3478;51.462;7.338;2023-05-07T04:23:28;14.83;;;13.43;;
6878;SDS011;3478;51.462;7.338;2023-05-07T04:28:31;15.33;;;13.90;;
6878;SDS011;3478;51.462;7.338;2023-05-07T04:33:33;13.53;;;12.13;;
6878;SDS011;3478;51.462;7.338;2023-05-07T04:38:35;13.33;;;11.93;;
6878;SDS011;3478;51.462;7.338;2023-05-07T04:43:38;12.73;;;11.63;;
6878;SDS011;3478;51.462;7.338;2023-05-07T04:48:41;15.20;;;12.17;;
6878;SDS011;3478;51.462;7.338;2023-05-07T04:53:43;11.80;;;10.80;;
6878;SDS011;3478;51.462;7.338;2023-05-07T04:58:46;11.10;;;10.20;;
6878;SDS011;3478;51.462;7.338;2023-05-07T05:03:48;10.80;;;9.80;;
6878;SDS011;3478;51.462;7.338;2023-05-07T05:08:50;11.63;;;10.10;;
6878;SDS011;3478;51.462;7.338;2023-05-07T05:13:53;9.83;;;9.17;;
6878;SDS011;3478;51.462;7.338;2023-05-07T05:18:55;9.53;;;8.70;;
6878;SDS011;3478;51.462;7.338;2023-05-07T05:23:57;9.23;;;8.20;;
6878;SDS011;3478;51.462;7.338;2023-05-07T05:29:00;11.43;;;8.27;;
6878;SDS011;3478;51.462;7.338;2023-05-07T05:34:02;9.07;;;8.27;;
6878;SDS011;3478;51.462;7.338;2023-05-07T05:39:04;9.20;;;8.43;;
6878;SDS011;3478;51.462;7.338;2023-05-07T05:44:07;8.50;;;7.90;;
6878;SDS011;3478;51.462;7.338;2023-05-07T05:49:09;8.47;;;7.77;;
6878;SDS011;3478;51.462;7.338;2023-05-07T05:54:11;7.83;;;7.10;;
6878;SDS011;3478;51.462;7.338;2023-05-07T05:59:14;6.87;;;6.37;;
6878;SDS011;3478;51.462;7.338;2023-05-07T06:04:16;6.07;;;5.70;;
6878;SDS011;3478;51.462;7.338;2023-05-07T06:09:17;6.60;;;6.03;;
6878;SDS011;3478;51.462;7.338;2023-05-07T06:14:21;4.53;;;4.33;;
6878;SDS011;3478;51.462;7.338;2023-05-07T06:19:23;4.97;;;4.67;;
6878;SDS011;3478;51.462;7.338;2023-05-07T06:24:26;4.30;;;3.87;;
6878;SDS011;3478;51.462;7.338;2023-05-07T06:29:29;3.60;;;3.40;;
6878;SDS011;3478;51.462;7.338;2023-05-07T06:34:32;4.30;;;4.00;;
6878;SDS011;3478;51.462;7.338;2023-05-07T06:39:34;5.63;;;5.13;;
6878;SDS011;3478;51.462;7.338;2023-05-07T06:44:37;4.00;;;3.57;;
6878;SDS011;3478;51.462;7.338;2023-05-07T06:49:39;6.23;;;4.50;;
6878;SDS011;3478;51.462;7.338;2023-05-07T06:54:41;3.80;;;3.60;;
6878;SDS011;3478;51.462;7.338;2023-05-07T06:59:44;3.93;;;3.60;;
6878;SDS011;3478;51.462;7.338;2023-05-07T07:04:46;3.43;;;3.23;;
6878;SDS011;3478;51.462;7.338;2023-05-07T07:09:49;2.63;;;2.43;;
6878;SDS011;3478;51.462;7.338;2023-05-07T07:14:52;2.77;;;2.53;;
6878;SDS011;3478;51.462;7.338;2023-05-07T07:19:54;5.77;;;2.53;;
6878;SDS011;3478;51.462;7.338;2023-05-07T07:24:56;2.90;;;2.70;;
6878;SDS011;3478;51.462;7.338;2023-05-07T07:29:59;2.33;;;2.23;;
6878;SDS011;3478;51.462;7.338;2023-05-07T07:35:01;4.17;;;2.40;;
6878;SDS011;3478;51.462;7.338;2023-05-07T07:40:03;2.23;;;2.03;;
6878;SDS011;3478;51.462;7.338;2023-05-07T07:45:08;2.37;;;2.17;;
6878;SDS011;3478;51.462;7.338;2023-05-07T07:50:10;2.17;;;1.97;;
6878;SDS011;3478;51.462;7.338;2023-05-07T07:55:12;2.70;;;2.50;;
6878;SDS011;3478;51.462;7.338;2023-05-07T08:00:19;3.00;;;2.27;;
6878;SDS011;3478;51.462;7.338;2023-05-07T08:05:22;3.87;;;2.30;;
6878;SDS011;3478;51.462;7.338;2023-05-07T08:10:25;2.20;;;2.10;;
6878;SDS011;3478;51.462;7.338;2023-05-07T08:15:28;3.93;;;2.43;;
6878;SDS011;3478;51.462;7.338;2023-05-07T08:20:30;2.13;;;1.93;;
6878;SDS011;3478;51.462;7.338;2023-05-07T08:25:32;3.10;;;2.10;;
6878;SDS011;3478;51.462;7.338;2023-05-07T08:30:35;2.70;;;2.50;;
6878;SDS011;3478;51.462;7.338;2023-05-07T08:35:37;4.77;;;3.57;;
6878;SDS011;3478;51.462;7.338;2023-05-07T08:40:39;3.00;;;2.80;;
6878;SDS011;3478;51.462;7.338;2023-05-07T08:45:43;3.20;;;2.93;;
6878;SDS011;3478;51.462;7.338;2023-05-07T08:50:47;4.13;;;3.40;;
6878;SDS011;3478;51.462;7.338;2023-05-07T08:55:49;4.83;;;4.53;;
6878;SDS011;3478;51.462;7.338;2023-05-07T09:00:52;3.63;;;3.40;;
6878;SDS011;3478;51.462;7.338;2023-05-07T09:05:55;3.33;;;2.47;;
6878;SDS011;3478;51.462;7.338;2023-05-07T09:10:57;3.50;;;3.30;;
6878;SDS011;3478;51.462;7.338;2023-05-07T09:16:01;5.43;;;3.60;;
6878;SDS011;3478;51.462;7.338;2023-05-07T09:21:14;3.97;;;3.77;;
6878;SDS011;3478;51.462;7.338;2023-05-07T09:26:16;4.80;;;3.93;;
6878;SDS011;3478;51.462;7.338;2023-05-07T09:31:20;4.20;;;4.00;;
6878;SDS011;3478;51.462;7.338;2023-05-07T09:36:23;6.20;;;4.70;;
6878;SDS011;3478;51.462;7.338;2023-05-07T09:41:25;6.47;;;4.80;;
6878;SDS011;3478;51.462;7.338;2023-05-07T09:46:29;5.80;;;5.47;;
6878;SDS011;3478;51.462;7.338;2023-05-07T09:51:33;6.37;;;5.60;;
6878;SDS011;3478;51.462;7.338;2023-05-07T09:56:40;6.47;;;5.97;;
6878;SDS011;3478;51.462;7.338;2023-05-07T10:01:45;6.00;;;5.50;;
6878;SDS011;3478;51.462;7.338;2023-05-07T10:06:47;6.63;;;6.13;;
6878;SDS011;3478;51.462;7.338;2023-05-07T10:11:49;7.83;;;7.10;;
6878;SDS011;3478;51.462;7.338;2023-05-07T10:16:52;9.73;;;7.50;;
6878;SDS011;3478;51.462;7.338;2023-05-07T10:21:55;5.87;;;5.30;;
6878;SDS011;3478;51.462;7.338;2023-05-07T10:27:04;5.27;;;4.87;;
6878;SDS011;3478;51.462;7.338;2023-05-07T10:32:19;4.50;;;4.10;;
6878;SDS011;3478;51.462;7.338;2023-05-07T10:37:32;3.93;;;3.67;;
6878;SDS011;3478;51.462;7.338;2023-05-07T10:42:34;3.27;;;2.97;;
6878;SDS011;3478;51.462;7.338;2023-05-07T10:47:37;1.40;;;1.30;;
6878;SDS011;3478;51.462;7.338;2023-05-07T10:53:20;3.07;;;2.77;;
6878;SDS011;3478;51.462;7.338;2023-05-07T10:58:29;3.00;;;2.80;;
6878;SDS011;3478;51.462;7.338;2023-05-07T11:03:34;2.33;;;2.10;;
6878;SDS011;3478;51.462;7.338;2023-05-07T11:08:54;3.00;;;2.80;;
6878;SDS011;3478;51.462;7.338;2023-05-07T11:13:57;2.97;;;2.77;;
6878;SDS011;3478;51.462;7.338;2023-05-07T11:19:00;2.70;;;2.50;;
6878;SDS011;3478;51.462;7.338;2023-05-07T11:24:03;4.70;;;2.90;;
6878;SDS011;3478;51.462;7.338;2023-05-07T11:29:08;2.43;;;2.23;;
6878;SDS011;3478;51.462;7.338;2023-05-07T11:34:13;2.53;;;2.43;;
6878;SDS011;3478;51.462;7.338;2023-05-07T11:39:28;2.90;;;2.80;;
6878;SDS011;3478;51.462;7.338;2023-05-07T11:44:41;2.83;;;2.63;;
6878;SDS011;3478;51.462;7.338;2023-05-07T11:49:47;6.07;;;4.07;;
6878;SDS011;3478;51.462;7.338;2023-05-07T11:54:49;4.60;;;4.30;;
6878;SDS011;3478;51.462;7.338;2023-05-07T11:59:52;6.73;;;6.07;;
6878;SDS011;3478;51.462;7.338;2023-05-07T12:04:56;5.13;;;4.77;;
6878;SDS011;3478;51.462;7.338;2023-05-07T12:09:58;6.27;;;4.93;;
6878;SDS011;3478;51.462;7.338;2023-05-07T12:15:00;7.03;;;5.50;;
6878;SDS011;3478;51.462;7.338;2023-05-07T12:20:03;5.67;;;5.27;;
6878;SDS011;3478;51.462;7.338;2023-05-07T12:25:07;5.17;;;4.67;;
6878;SDS011;3478;51.462;7.338;2023-05-07T12:30:10;5.00;;;4.67;;
6878;SDS011;3478;51.462;7.338;2023-05-07T12:35:15;8.27;;;4.20;;
6878;SDS011;3478;51.462;7.338;2023-05-07T12:40:17;3.53;;;3.33;;
6878;SDS011;3478;51.462;7.338;2023-05-07T12:45:19;5.37;;;4.90;;
6878;SDS011;3478;51.462;7.338;2023-05-07T12:50:23;6.57;;;6.10;;
6878;SDS011;3478;51.462;7.338;2023-05-07T12:55:24;5.80;;;5.30;;
6878;SDS011;3478;51.462;7.338;2023-05-07T13:00:33;5.87;;;5.17;;
6878;SDS011;3478;51.462;7.338;2023-05-07T13:05:38;6.93;;;6.20;;
6878;SDS011;3478;51.462;7.338;2023-05-07T13:10:40;6.07;;;5.57;;
6878;SDS011;3478;51.462;7.338;2023-05-07T13:15:42;6.50;;;4.60;;
6878;SDS011;3478;51.462;7.338;2023-05-07T13:20:45;3.20;;;2.60;;
6878;SDS011;3478;51.462;7.338;2023-05-07T13:25:47;2.93;;;2.73;;
6878;SDS011;3478;51.462;7.338;2023-05-07T13:30:50;4.37;;;3.30;;
6878;SDS011;3478;51.462;7.338;2023-05-07T13:35:55;4.20;;;2.47;;
6878;SDS011;3478;51.462;7.338;2023-05-07T13:40:58;4.53;;;4.13;;
6878;SDS011;3478;51.462;7.338;2023-05-07T13:46:00;4.33;;;4.00;;
6878;SDS011;3478;51.462;7.338;2023-05-07T13:51:03;3.57;;;3.30;;
6878;SDS011;3478;51.462;7.338;2023-05-07T13:56:05;4.77;;;4.37;;
6878;SDS011;3478;51.462;7.338;2023-05-07T14:01:07;4.70;;;4.30;;
6878;SDS011;3478;51.462;7.338;2023-05-07T14:06:10;4.77;;;4.50;;
6878;SDS011;3478;51.462;7.338;2023-05-07T14:11:12;5.60;;;4.53;;
6878;SDS011;3478;51.462;7.338;2023-05-07T14:16:14;4.77;;;4.10;;
6878;SDS011;3478;51.462;7.338;2023-05-07T14:21:18;6.30;;;5.80;;
6878;SDS011;3478;51.462;7.338;2023-05-07T14:26:19;6.80;;;6.27;;
6878;SDS011;3478;51.462;7.338;2023-05-07T14:31:22;6.33;;;5.93;;
6878;SDS011;3478;51.462;7.338;2023-05-07T14:36:27;7.27;;;6.67;;
6878;SDS011;3478;51.462;7.338;2023-05-07T14:41:30;7.47;;;6.70;;
6878;SDS011;3478;51.462;7.338;2023-05-07T14:46:33;7.13;;;6.47;;
6878;SDS011;3478;51.462;7.338;2023-05-07T14:51:36;7.63;;;6.87;;
6878;SDS011;3478;51.462;7.338;2023-05-07T14:56:39;8.40;;;7.63;;
6878;SDS011;3478;51.462;7.338;2023-05-07T15:01:41;7.57;;;6.40;;
6878;SDS011;3478;51.462;7.338;2023-05-07T15:06:46;6.73;;;6.23;;
6878;SDS011;3478;51.462;7.338;2023-05-07T15:11:48;7.23;;;6.73;;
6878;SDS011;3478;51.462;7.338;2023-05-07T15:16:50;5.77;;;5.40;;
6878;SDS011;3478;51.462;7.338;2023-05-07T15:21:54;5.60;;;4.20;;
6878;SDS011;3478;51.462;7.338;2023-05-07T15:26:56;3.33;;;3.13;;
6878;SDS011;3478;51.462;7.338;2023-05-07T15:31:58;2.97;;;2.87;;
6878;SDS011;3478;51.462;7.338;2023-05-07T15:37:02;2.80;;;2.60;;
6878;SDS011;3478;51.462;7.338;2023-05-07T15:42:04;3.03;;;2.80;;
6878;SDS011;3478;51.462;7.338;2023-05-07T15:47:06;3.40;;;3.20;;
6878;SDS011;3478;51.462;7.338;2023-05-07T15:52:09;2.80;;;2.60;;
6878;SDS011;3478;51.462;7.338;2023-05-07T15:57:13;3.20;;;3.00;;
6878;SDS011;3478;51.462;7.338;2023-05-07T16:02:18;3.57;;;3.37;;
6878;SDS011;3478;51.462;7.338;2023-05-07T16:07:23;3.47;;;2.67;;
6878;SDS011;3478;51.462;7.338;2023-05-07T16:12:25;3.47;;;3.17;;
6878;SDS011;3478;51.462;7.338;2023-05-07T16:17:27;3.70;;;3.40;;
6878;SDS011;3478;51.462;7.338;2023-05-07T16:22:30;2.80;;;2.70;;
6878;SDS011;3478;51.462;7.338;2023-05-07T16:27:32;3.23;;;2.93;;
6878;SDS011;3478;51.462;7.338;2023-05-07T16:32:34;3.50;;;3.30;;
6878;SDS011;3478;51.462;7.338;2023-05-07T16:37:39;3.80;;;3.60;;
6878;SDS011;3478;51.462;7.338;2023-05-07T16:42:41;4.03;;;3.83;;
6878;SDS011;3478;51.462;7.338;2023-05-07T16:47:43;4.00;;;3.70;;
6878;SDS011;3478;51.462;7.338;2023-05-07T16:52:47;3.23;;;3.03;;
6878;SDS011;3478;51.462;7.338;2023-05-07T16:57:49;3.10;;;2.90;;
6878;SDS011;3478;51.462;7.338;2023-05-07T17:02:51;3.30;;;3.10;;
6878;SDS011;3478;51.462;7.338;2023-05-07T17:07:55;4.37;;;4.07;;
6878;SDS011;3478;51.462;7.338;2023-05-07T17:12:57;2.87;;;2.67;;
6878;SDS011;3478;51.462;7.338;2023-05-07T17:17:59;4.93;;;3.23;;
6878;SDS011;3478;51.462;7.338;2023-05-07T17:23:02;4.23;;;3.90;;
6878;SDS011;3478;51.462;7.338;2023-05-07T17:28:04;3.20;;;2.90;;
6878;SDS011;3478;51.462;7.338;2023-05-07T17:33:06;2.97;;;2.73;;
6878;SDS011;3478;51.462;7.338;2023-05-07T17:38:09;3.90;;;3.70;;
6878;SDS011;3478;51.462;7.338;2023-05-07T17:43:11;3.37;;;3.17;;
6878;SDS011;3478;51.462;7.338;2023-05-07T17:48:13;3.10;;;2.90;;
6878;SDS011;3478;51.462;7.338;2023-05-07T17:53:17;2.53;;;2.43;;
6878;SDS011;3478;51.462;7.338;2023-05-07T17:58:22;2.70;;;2.30;;
6878;SDS011;3478;51.462;7.338;2023-05-07T18:03:26;3.93;;;2.93;;
6878;SDS011;3478;51.462;7.338;2023-05-07T18:08:30;3.10;;;2.80;;
6878;SDS011;3478;51.462;7.338;2023-05-07T18:13:32;2.67;;;2.13;;
6878;SDS011;3478;51.462;7.338;2023-05-07T18:18:34;3.53;;;3.30;;
6878;SDS011;3478;51.462;7.338;2023-05-07T18:23:37;3.60;;;3.27;;
6878;SDS011;3478;51.462;7.338;2023-05-07T18:28:39;3.17;;;2.97;;
6878;SDS011;3478;51.462;7.338;2023-05-07T18:33:41;4.53;;;2.50;;
6878;SDS011;3478;51.462;7.338;2023-05-07T18:38:44;5.60;;;4.37;;
6878;SDS011;3478;51.462;7.338;2023-05-07T18:43:46;3.23;;;3.03;;
6878;SDS011;3478;51.462;7.338;2023-05-07T18:48:48;3.63;;;3.30;;
6878;SDS011;3478;51.462;7.338;2023-05-07T18:53:53;3.50;;;3.30;;
6878;SDS011;3478;51.462;7.338;2023-05-07T18:58:54;3.17;;;2.97;;
6878;SDS011;3478;51.462;7.338;2023-05-07T19:03:56;3.37;;;3.13;;
6878;SDS011;3478;51.462;7.338;2023-05-07T19:09:00;4.63;;;4.27;;
6878;SDS011;3478;51.462;7.338;2023-05-07T19:14:02;3.67;;;3.47;;
6878;SDS011;3478;51.462;7.338;2023-05-07T19:19:04;3.20;;;3.00;;
6878;SDS011;3478;51.462;7.338;2023-05-07T19:24:08;3.90;;;3.53;;
6878;SDS011;3478;51.462;7.338;2023-05-07T19:29:09;4.47;;;4.17;;
6878;SDS011;3478;51.462;7.338;2023-05-07T19:34:11;4.67;;;3.87;;
6878;SDS011;3478;51.462;7.338;2023-05-07T19:39:15;4.43;;;4.10;;
6878;SDS011;3478;51.462;7.338;2023-05-07T19:44:17;4.73;;;4.43;;
6878;SDS011;3478;51.462;7.338;2023-05-07T19:49:19;6.00;;;5.50;;
6878;SDS011;3478;51.462;7.338;2023-05-07T19:54:23;5.07;;;4.67;;
6878;SDS011;3478;51.462;7.338;2023-05-07T19:59:25;7.23;;;6.63;;
6878;SDS011;3478;51.462;7.338;2023-05-07T20:04:27;7.27;;;6.70;;
6878;SDS011;3478;51.462;7.338;2023-05-07T20:09:33;7.40;;;6.70;;
6878;SDS011;3478;51.462;7.338;2023-05-07T20:14:35;8.57;;;7.80;;
6878;SDS011;3478;51.462;7.338;2023-05-07T20:19:37;10.50;;;9.50;;
6878;SDS011;3478;51.462;7.338;2023-05-07T20:24:40;10.10;;;9.07;;
6878;SDS011;3478;51.462;7.338;2023-05-07T20:29:42;12.93;;;11.43;;
6878;SDS011;3478;51.462;7.338;2023-05-07T20:34:44;11.73;;;10.20;;
6878;SDS011;3478;51.462;7.338;2023-05-07T20:39:48;13.50;;;12.20;;
6878;SDS011;3478;51.462;7.338;2023-05-07T20:44:49;12.93;;;11.03;;
6878;SDS011;3478;51.462;7.338;2023-05-07T20:49:53;16.10;;;13.20;;
6878;SDS011;3478;51.462;7.338;2023-05-07T20:54:56;14.40;;;11.90;;
6878;SDS011;3478;51.462;7.338;2023-05-07T20:59:58;14.87;;;13.37;;
6878;SDS011;3478;51.462;7.338;2023-05-07T21:05:00;18.90;;;15.00;;
6878;SDS011;3478;51.462;7.338;2023-05-07T21:10:04;16.73;;;15.03;;
6878;SDS011;3478;51.462;7.338;2023-05-07T21:15:07;16.83;;;14.47;;
6878;SDS011;3478;51.462;7.338;2023-05-07T21:20:10;17.77;;;15.83;;
6878;SDS011;3478;51.462;7.338;2023-05-07T21:25:14;15.73;;;14.03;;
6878;SDS011;3478;51.462;7.338;2023-05-07T21:30:16;17.77;;;13.97;;
6878;SDS011;3478;51.462;7.338;2023-05-07T21:35:18;18.00;;;15.63;;
6878;SDS011;3478;51.462;7.338;2023-05-07T21:40:21;16.77;;;14.97;;
6878;SDS011;3478;51.462;7.338;2023-05-07T21:45:23;18.27;;;15.80;;
6878;SDS011;3478;51.462;7.338;2023-05-07T21:50:25;17.10;;;15.33;;
6878;SDS011;3478;51.462;7.338;2023-05-07T21:55:28;18.10;;;16.17;;
6878;SDS011;3478;51.462;7.338;2023-05-07T22:00:31;18.57;;;15.70;;
6878;SDS011;3478;51.462;7.338;2023-05-07T22:05:33;18.73;;;16.13;;
6878;SDS011;3478;51.462;7.338;2023-05-07T22:10:36;18.03;;;16.13;;
6878;SDS011;3478;51.462;7.338;2023-05-07T22:15:38;21.07;;;17.43;;
6878;SDS011;3478;51.462;7.338;2023-05-07T22:20:40;19.70;;;16.57;;
6878;SDS011;3478;51.462;7.338;2023-05-07T22:25:43;19.70;;;16.87;;
6878;SDS011;3478;51.462;7.338;2023-05-07T22:30:45;20.87;;;17.27;;
6878;SDS011;3478;51.462;7.338;2023-05-07T22:35:47;18.20;;;16.30;;
6878;SDS011;3478;51.462;7.338;2023-05-07T22:40:51;21.73;;;16.73;;
6878;SDS011;3478;51.462;7.338;2023-05-07T22:45:56;24.83;;;18.03;;
6878;SDS011;3478;51.462;7.338;2023-05-07T22:51:03;23.80;;;17.10;;
6878;SDS011;3478;51.462;7.338;2023-05-07T22:56:07;21.20;;;18.23;;
6878;SDS011;3478;51.462;7.338;2023-05-07T23:01:10;24.57;;;18.47;;
6878;SDS011;3478;51.462;7.338;2023-05-07T23:06:12;19.20;;;17.10;;
6878;SDS011;3478;51.462;7.338;2023-05-07T23:11:16;20.17;;;17.27;;
6878;SDS011;3478;51.462;7.338;2023-05-07T23:16:17;18.77;;;16.87;;
6878;SDS011;3478;51.462;7.338;2023-05-07T23:21:19;21.43;;;17.57;;
6878;SDS011;3478;51.462;7.338;2023-05-07T23:26:23;20.00;;;17.87;;
6878;SDS011;3478;51.462;7.338;2023-05-07T23:31:27;28.77;;;17.80;;
6878;SDS011;3478;51.462;7.338;2023-05-07T23:36:29;20.57;;;18.07;;
6878;SDS011;3478;51.462;7.338;2023-05-07T23:41:33;24.17;;;17.90;;
6878;SDS011;3478;51.462;7.338;2023-05-07T23:46:35;19.40;;;16.70;;
6878;SDS011;3478;51.462;7.338;2023-05-07T23:51:37;17.93;;;15.37;;
6878;SDS011;3478;51.462;7.338;2023-05-07T23:56:40;18.47;;;16.47;;
